Time;durP1;ratioP1;P1;durP2;ratioP2;P2;SDS_P1;SDS_P2;PMS_P1;PMS_P2;Temp;Humidity;BMP_temperature;BMP_pressure;BME280_temperature;BME280_humidity;BME280_pressure;Samples;Min_cycle;Max_cycle;Signal;HPM_P1;HPM_P2
2023/12/01 00:00:39;;;;;;;34.13;18.77;;;-0.70;99.90;;;;;;4882950;29;20218;-90
2023/12/01 00:03:05;;;;;;;31.80;17.53;;;-0.70;99.90;;;;;;4873258;29;20318;-89
2023/12/01 00:05:31;;;;;;;31.27;17.70;;;-0.70;99.90;;;;;;4908884;29;20578;-91
2023/12/01 00:07:56;;;;;;;33.40;17.43;;;-0.70;99.90;;;;;;4908812;29;20191;-90
2023/12/01 00:10:22;;;;;;;31.93;17.90;;;-0.70;99.90;;;;;;4901448;29;20194;-91
2023/12/01 00:12:48;;;;;;;35.57;17.83;;;-0.70;99.90;;;;;;4891554;29;20190;-89
2023/12/01 00:15:13;;;;;;;32.40;18.00;;;-0.80;99.90;;;;;;4903483;29;20186;-90
2023/12/01 00:17:39;;;;;;;33.60;18.10;;;-0.70;99.90;;;;;;4895400;29;20637;-89
2023/12/01 00:20:05;;;;;;;35.20;18.30;;;-0.70;99.90;;;;;;4885578;29;20226;-89
2023/12/01 00:22:31;;;;;;;39.43;21.53;;;-0.70;99.90;;;;;;4882222;29;20313;-90
2023/12/01 00:24:57;;;;;;;32.47;18.40;;;-0.70;99.90;;;;;;4899204;29;20636;-88
2023/12/01 00:27:22;;;;;;;30.03;17.83;;;-0.70;99.90;;;;;;4885017;29;20199;-89
2023/12/01 00:29:48;;;;;;;30.20;16.93;;;-0.70;99.90;;;;;;4894863;29;20188;-89
2023/12/01 00:32:14;;;;;;;31.03;16.83;;;-0.80;99.90;;;;;;4919050;29;20519;-89
2023/12/01 00:34:40;;;;;;;30.47;17.83;;;-0.80;99.90;;;;;;4905295;29;20194;-89
2023/12/01 00:37:06;;;;;;;30.60;16.60;;;-0.80;99.90;;;;;;4878087;29;20623;-89
2023/12/01 00:39:31;;;;;;;31.17;17.70;;;-0.80;99.90;;;;;;4898599;29;20275;-89
2023/12/01 00:41:57;;;;;;;30.97;17.10;;;-0.90;99.90;;;;;;4874135;29;20219;-88
2023/12/01 00:44:22;;;;;;;31.57;17.33;;;-0.90;99.90;;;;;;4887929;29;20523;-88
2023/12/01 00:46:48;;;;;;;34.60;18.73;;;-0.90;99.90;;;;;;4904973;29;20190;-88
2023/12/01 00:49:15;;;;;;;30.87;18.13;;;-0.90;99.90;;;;;;4875357;29;20223;-88
2023/12/01 00:51:43;;;;;;;33.10;16.73;;;-1.00;99.90;;;;;;4898616;29;20260;-89
2023/12/01 00:54:09;;;;;;;30.87;18.03;;;-0.90;99.90;;;;;;4875931;29;20187;-89
2023/12/01 00:56:35;;;;;;;30.27;16.97;;;-0.90;99.90;;;;;;4902671;29;20238;-88
2023/12/01 00:59:00;;;;;;;29.87;17.00;;;-0.90;99.90;;;;;;4910279;29;20219;-89
2023/12/01 01:01:26;;;;;;;32.67;17.33;;;-0.90;99.90;;;;;;4892444;29;20194;-88
2023/12/01 01:03:53;;;;;;;33.20;17.57;;;-0.80;99.90;;;;;;4917015;29;20195;-88
2023/12/01 01:06:18;;;;;;;35.20;17.40;;;-0.80;99.90;;;;;;4916678;29;20184;-89
2023/12/01 01:08:44;;;;;;;32.43;17.33;;;-0.80;99.90;;;;;;4914001;29;20505;-88
2023/12/01 01:11:09;;;;;;;35.93;18.37;;;-0.90;99.90;;;;;;4919287;29;20189;-88
2023/12/01 01:13:35;;;;;;;32.30;16.77;;;-0.90;99.90;;;;;;4894866;29;20658;-86
2023/12/01 01:16:01;;;;;;;32.70;17.63;;;-0.90;99.90;;;;;;4897748;29;20686;-88
2023/12/01 01:18:26;;;;;;;30.33;16.50;;;-0.90;99.90;;;;;;4916295;29;20185;-89
2023/12/01 01:20:52;;;;;;;28.83;16.30;;;-0.90;99.90;;;;;;4899287;29;20618;-84
2023/12/01 01:23:18;;;;;;;32.33;17.33;;;-0.90;99.90;;;;;;4901457;29;20266;-89
2023/12/01 01:25:43;;;;;;;29.20;16.80;;;-0.90;99.90;;;;;;4915149;29;20179;-88
2023/12/01 01:28:09;;;;;;;30.60;17.27;;;-0.90;99.90;;;;;;4925824;29;20188;-89
2023/12/01 01:30:35;;;;;;;30.77;17.47;;;-0.90;99.90;;;;;;4915921;29;20195;-87
2023/12/01 01:33:01;;;;;;;28.07;16.23;;;-0.90;99.90;;;;;;4900986;29;20183;-88
2023/12/01 01:35:26;;;;;;;29.97;17.10;;;-0.90;99.90;;;;;;4906634;29;20626;-88
2023/12/01 01:37:52;;;;;;;35.77;17.47;;;-0.90;99.90;;;;;;4899318;29;20193;-89
2023/12/01 01:40:18;;;;;;;32.40;17.13;;;-0.90;99.90;;;;;;4913695;29;20194;-88
2023/12/01 01:42:43;;;;;;;28.90;16.07;;;-1.00;99.90;;;;;;4922964;29;20233;-88
2023/12/01 01:45:10;;;;;;;27.07;16.17;;;-0.90;99.90;;;;;;4919074;29;20248;-87
2023/12/01 01:47:36;;;;;;;28.73;17.03;;;-0.90;99.90;;;;;;4915912;29;20187;-88
2023/12/01 01:50:07;;;;;;;34.57;18.03;;;-0.90;99.90;;;;;;4891752;29;20190;-88
2023/12/01 01:52:35;;;;;;;30.43;16.67;;;-0.90;99.90;;;;;;4904132;29;20549;-88
2023/12/01 01:55:01;;;;;;;33.73;18.07;;;-0.90;99.90;;;;;;4904302;29;20191;-88
2023/12/01 01:57:28;;;;;;;33.50;16.67;;;-0.90;99.90;;;;;;4905682;29;20279;-87
2023/12/01 01:59:54;;;;;;;33.23;17.80;;;-0.90;99.90;;;;;;4890262;29;20197;-87
2023/12/01 02:02:20;;;;;;;31.73;18.20;;;-0.90;99.90;;;;;;4922237;29;20210;-88
2023/12/01 02:07:27;;;;;;;29.43;17.30;;;-1.00;99.90;;;;;;5199097;23;20246;-88
2023/12/01 02:09:54;;;;;;;30.10;17.07;;;-0.90;99.90;;;;;;4911878;29;20210;-87
2023/12/01 02:12:20;;;;;;;31.87;17.93;;;-0.90;99.90;;;;;;4908432;29;20262;-88
2023/12/01 02:14:45;;;;;;;30.57;16.83;;;-1.00;99.90;;;;;;4906979;29;20213;-86
2023/12/01 02:17:11;;;;;;;33.10;17.50;;;-1.00;99.90;;;;;;4894056;29;20694;-87
2023/12/01 02:19:37;;;;;;;29.70;17.90;;;-1.00;99.90;;;;;;4876323;29;20183;-87
2023/12/01 02:22:03;;;;;;;32.13;17.47;;;-1.00;99.90;;;;;;4876765;29;20231;-86
2023/12/01 02:24:29;;;;;;;32.33;17.17;;;-0.90;99.90;;;;;;4890483;29;20278;-88
2023/12/01 02:26:54;;;;;;;32.30;17.93;;;-0.90;99.90;;;;;;4875881;29;20190;-86
2023/12/01 02:29:20;;;;;;;34.97;18.50;;;-0.90;99.90;;;;;;4898944;29;20213;-88
2023/12/01 02:31:46;;;;;;;31.73;18.30;;;-0.90;99.90;;;;;;4892755;29;20176;-87
2023/12/01 02:34:11;;;;;;;31.63;17.60;;;-0.90;99.90;;;;;;4889194;29;20273;-88
2023/12/01 02:36:38;;;;;;;31.40;17.13;;;-0.90;99.90;;;;;;4877693;29;20191;-87
2023/12/01 02:39:07;;;;;;;31.73;17.70;;;-0.90;99.90;;;;;;4892391;29;20200;-88
2023/12/01 02:41:33;;;;;;;34.67;17.30;;;-0.90;99.90;;;;;;4889754;29;20183;-87
2023/12/01 02:43:59;;;;;;;31.07;16.97;;;-0.90;99.90;;;;;;4890697;29;20251;-86
2023/12/01 02:46:24;;;;;;;31.97;17.30;;;-0.90;99.90;;;;;;4875976;29;20255;-87
2023/12/01 02:48:50;;;;;;;29.13;16.17;;;-0.90;99.90;;;;;;4875715;29;20570;-86
2023/12/01 02:51:16;;;;;;;32.57;17.47;;;-0.90;99.90;;;;;;4889750;29;20234;-87
2023/12/01 02:53:42;;;;;;;33.57;17.63;;;-0.90;99.90;;;;;;4888038;29;20215;-87
2023/12/01 02:56:08;;;;;;;30.63;16.60;;;-0.90;99.90;;;;;;4882931;29;20243;-87
2023/12/01 02:58:36;;;;;;;32.20;17.57;;;-0.90;99.90;;;;;;4905733;29;20512;-87
2023/12/01 03:01:03;;;;;;;31.73;17.33;;;-0.90;99.90;;;;;;4892906;29;20180;-87
2023/12/01 03:03:28;;;;;;;32.40;17.67;;;-0.90;99.90;;;;;;4899195;29;20628;-87
2023/12/01 03:05:54;;;;;;;29.93;17.00;;;-0.80;99.90;;;;;;4888714;29;20234;-87
2023/12/01 03:08:20;;;;;;;31.17;17.80;;;-0.90;99.90;;;;;;4902571;29;20190;-87
2023/12/01 03:10:46;;;;;;;29.93;17.07;;;-0.80;99.90;;;;;;4887882;29;20179;-88
2023/12/01 03:13:12;;;;;;;32.37;16.47;;;-0.80;99.90;;;;;;4902133;29;20182;-88
2023/12/01 03:15:37;;;;;;;30.77;16.30;;;-0.90;99.90;;;;;;4918570;29;20189;-87
2023/12/01 03:18:03;;;;;;;30.10;16.80;;;-0.90;99.90;;;;;;4917371;29;20187;-87
2023/12/01 03:20:29;;;;;;;35.50;18.87;;;-0.90;99.90;;;;;;4892186;29;20175;-88
2023/12/01 03:22:55;;;;;;;32.10;17.50;;;-1.00;99.90;;;;;;4891720;29;20219;-86
2023/12/01 03:25:20;;;;;;;32.80;17.47;;;-0.90;99.90;;;;;;4882693;29;20534;-83
2023/12/01 03:27:49;;;;;;;32.60;16.90;;;-0.90;99.90;;;;;;4891849;29;20517;-88
2023/12/01 03:30:17;;;;;;;30.47;18.13;;;-0.90;99.90;;;;;;4887699;29;20505;-87
2023/12/01 03:32:48;;;;;;;33.17;17.47;;;-0.90;99.90;;;;;;4893707;29;20563;-88
2023/12/01 03:35:20;;;;;;;30.30;17.77;;;-0.90;99.90;;;;;;4890370;29;20176;-86
2023/12/01 03:37:48;;;;;;;31.03;16.73;;;-0.90;99.90;;;;;;4895344;29;20531;-85
2023/12/01 03:40:14;;;;;;;31.67;16.47;;;-0.90;99.90;;;;;;4914093;29;20207;-86
2023/12/01 03:42:45;;;;;;;29.73;16.53;;;-0.90;99.90;;;;;;4891552;29;20217;-88
2023/12/01 03:45:12;;;;;;;28.27;16.03;;;-1.00;99.90;;;;;;4873314;29;20183;-87
2023/12/01 03:47:46;;;;;;;26.27;15.63;;;-0.90;99.90;;;;;;4888639;29;20187;-87
2023/12/01 03:50:13;;;;;;;25.77;15.50;;;-1.00;99.90;;;;;;4904920;29;20270;-85
2023/12/01 03:52:43;;;;;;;23.33;13.80;;;-0.90;99.90;;;;;;4883258;29;20226;-86
2023/12/01 03:55:10;;;;;;;17.43;11.77;;;-1.00;99.90;;;;;;4903713;29;20179;-87
2023/12/01 03:57:37;;;;;;;20.13;12.20;;;-0.90;99.90;;;;;;4895097;29;20270;-87
2023/12/01 04:00:13;;;;;;;21.23;13.63;;;-0.90;99.90;;;;;;4894135;29;20183;-87
2023/12/01 04:02:41;;;;;;;24.27;13.67;;;-0.90;99.90;;;;;;4880680;29;20214;-87
2023/12/01 04:05:08;;;;;;;21.20;12.53;;;-0.90;99.90;;;;;;4884657;29;20622;-87
2023/12/01 04:07:38;;;;;;;21.50;13.00;;;-0.90;99.90;;;;;;4896438;29;20263;-86
2023/12/01 04:10:10;;;;;;;18.47;12.53;;;-0.90;99.90;;;;;;4876086;29;20179;-86
2023/12/01 04:12:39;;;;;;;21.10;13.40;;;-0.90;99.90;;;;;;4901644;29;20179;-86
2023/12/01 04:15:05;;;;;;;20.97;12.80;;;-0.90;99.90;;;;;;4897953;29;20191;-87
2023/12/01 04:17:32;;;;;;;24.37;13.33;;;-0.90;99.90;;;;;;4904540;29;20212;-87
2023/12/01 04:20:00;;;;;;;21.03;13.27;;;-0.90;99.90;;;;;;4882614;29;20183;-87
2023/12/01 04:22:25;;;;;;;23.77;14.40;;;-0.90;99.90;;;;;;4875124;29;20222;-86
2023/12/01 04:24:51;;;;;;;21.73;12.87;;;-0.90;99.90;;;;;;4898788;29;20183;-88
2023/12/01 04:27:16;;;;;;;22.23;13.80;;;-0.90;99.90;;;;;;4885475;29;20198;-86
2023/12/01 04:29:48;;;;;;;19.33;11.77;;;-0.90;99.90;;;;;;4877827;29;20191;-86
2023/12/01 04:32:14;;;;;;;25.03;13.20;;;-0.90;99.90;;;;;;4897777;29;20186;-87
2023/12/01 04:34:39;;;;;;;21.57;12.53;;;-0.90;99.90;;;;;;4891395;29;20270;-87
2023/12/01 04:37:09;;;;;;;19.80;12.03;;;-1.00;99.90;;;;;;4892507;29;20180;-86
2023/12/01 04:39:35;;;;;;;23.10;12.73;;;-1.00;99.90;;;;;;4907959;29;20183;-86
2023/12/01 04:42:01;;;;;;;20.33;12.57;;;-0.90;99.90;;;;;;4901242;29;20214;-86
2023/12/01 04:44:26;;;;;;;17.47;11.43;;;-1.00;99.90;;;;;;4906116;29;20194;-86
2023/12/01 04:46:52;;;;;;;19.17;12.07;;;-1.00;99.90;;;;;;4896957;29;20227;-84
2023/12/01 04:49:18;;;;;;;17.30;11.60;;;-1.00;99.90;;;;;;4903345;29;20194;-87
2023/12/01 04:51:44;;;;;;;16.50;11.27;;;-1.00;99.90;;;;;;4906771;29;20184;-85
2023/12/01 04:54:10;;;;;;;16.67;11.00;;;-1.00;99.90;;;;;;4892809;29;20195;-86
2023/12/01 04:56:35;;;;;;;17.60;10.83;;;-1.00;99.90;;;;;;4890688;29;20620;-81
2023/12/01 04:59:04;;;;;;;18.67;11.60;;;-1.00;99.90;;;;;;4891573;29;20184;-87
2023/12/01 05:01:30;;;;;;;17.83;11.17;;;-1.00;99.90;;;;;;4881860;29;20197;-87
2023/12/01 05:03:55;;;;;;;20.50;11.83;;;-1.00;99.90;;;;;;4904973;29;20196;-85
2023/12/01 05:06:21;;;;;;;19.90;12.20;;;-1.00;99.90;;;;;;4908763;29;20620;-86
2023/12/01 05:08:50;;;;;;;19.27;11.57;;;-1.00;99.90;;;;;;4878407;29;20220;-86
2023/12/01 05:11:15;;;;;;;17.47;11.23;;;-1.10;99.90;;;;;;4881973;29;20219;-85
2023/12/01 05:13:41;;;;;;;15.63;10.80;;;-1.00;99.90;;;;;;4890561;29;20569;-84
2023/12/01 05:16:07;;;;;;;19.40;11.43;;;-1.00;99.90;;;;;;4908756;29;20265;-86
2023/12/01 05:18:34;;;;;;;17.67;11.17;;;-0.90;99.90;;;;;;4907589;29;20679;-86
2023/12/01 05:21:00;;;;;;;16.97;10.70;;;-1.00;99.90;;;;;;4908658;29;20661;-86
2023/12/01 05:23:25;;;;;;;15.40;10.07;;;-1.00;99.90;;;;;;4890364;29;20295;-86
2023/12/01 05:25:51;;;;;;;17.83;10.27;;;-1.00;99.90;;;;;;4879929;29;20186;-85
2023/12/01 05:28:18;;;;;;;18.13;10.37;;;-1.00;99.90;;;;;;4919604;29;20190;-86
2023/12/01 05:30:48;;;;;;;14.80;9.50;;;-1.00;99.90;;;;;;4900091;29;20188;-84
2023/12/01 05:33:14;;;;;;;16.37;10.60;;;-1.00;99.90;;;;;;4908237;29;20179;-85
2023/12/01 05:35:40;;;;;;;15.77;9.33;;;-1.00;99.90;;;;;;4906658;29;20250;-85
2023/12/01 05:38:05;;;;;;;15.73;9.87;;;-1.00;99.90;;;;;;4901482;29;20510;-84
2023/12/01 05:40:36;;;;;;;15.27;9.90;;;-1.00;99.90;;;;;;4894107;29;20188;-83
2023/12/01 05:43:03;;;;;;;12.33;8.83;;;-1.00;99.90;;;;;;4893697;29;20235;-85
2023/12/01 05:45:35;;;;;;;13.70;8.53;;;-1.00;99.90;;;;;;4897964;29;20188;-84
2023/12/01 05:48:03;;;;;;;14.50;8.37;;;-0.90;99.90;;;;;;4876551;29;20190;-86
2023/12/01 05:50:32;;;;;;;13.43;9.57;;;-0.90;99.90;;;;;;4911921;29;20216;-86
2023/12/01 05:53:07;;;;;;;14.40;8.87;;;-1.00;99.90;;;;;;4894433;29;20195;-85
2023/12/01 05:55:33;;;;;;;13.87;9.20;;;-0.90;99.90;;;;;;4900303;29;20179;-86
2023/12/01 05:58:01;;;;;;;12.87;8.83;;;-0.90;99.90;;;;;;4875889;29;20192;-84
2023/12/01 06:00:30;;;;;;;16.33;10.80;;;-1.00;99.90;;;;;;4903649;29;20532;-85
2023/12/01 06:03:08;;;;;;;17.03;11.57;;;-1.00;99.90;;;;;;4894500;29;20301;-82
2023/12/01 06:05:35;;;;;;;18.53;11.93;;;-1.00;99.90;;;;;;4905109;29;20175;-85
2023/12/01 06:08:03;;;;;;;21.43;12.70;;;-1.00;99.90;;;;;;4881505;29;20203;-86
2023/12/01 06:10:31;;;;;;;18.50;12.13;;;-1.00;99.90;;;;;;4895349;29;20227;-86
2023/12/01 06:12:58;;;;;;;19.77;12.33;;;-1.10;99.90;;;;;;4880625;29;20183;-85
2023/12/01 06:15:29;;;;;;;15.50;10.83;;;-1.10;99.90;;;;;;4899401;29;20213;-86
2023/12/01 06:17:55;;;;;;;15.80;10.73;;;-1.10;99.90;;;;;;4910020;29;20711;-85
2023/12/01 06:20:23;;;;;;;16.50;10.90;;;-1.10;99.90;;;;;;4908035;29;20541;-85
2023/12/01 06:22:56;;;;;;;17.10;10.37;;;-1.10;99.90;;;;;;4899268;29;20213;-86
2023/12/01 06:25:27;;;;;;;18.37;11.43;;;-1.10;99.90;;;;;;4907955;29;20186;-86
2023/12/01 06:28:03;;;;;;;18.77;10.80;;;-1.00;99.90;;;;;;4892701;29;20188;-85
2023/12/01 06:30:42;;;;;;;16.23;11.27;;;-1.00;99.90;;;;;;4875119;29;20294;-86
2023/12/01 06:33:08;;;;;;;15.77;9.93;;;-1.10;99.90;;;;;;4892855;29;20572;-86
2023/12/01 06:35:33;;;;;;;18.30;10.57;;;-1.10;99.90;;;;;;4901233;29;20291;-85
2023/12/01 06:37:59;;;;;;;18.40;11.33;;;-1.10;99.90;;;;;;4918615;29;20203;-85
2023/12/01 06:40:25;;;;;;;14.90;10.13;;;-1.10;99.90;;;;;;4894160;29;20281;-86
2023/12/01 06:42:55;;;;;;;14.90;9.70;;;-1.20;99.90;;;;;;4910682;29;20543;-85
2023/12/01 06:45:23;;;;;;;17.70;10.00;;;-1.20;99.90;;;;;;4904633;29;20187;-85
2023/12/01 06:47:50;;;;;;;14.50;9.20;;;-1.30;99.90;;;;;;4902507;29;20190;-86
2023/12/01 06:50:18;;;;;;;16.23;10.70;;;-1.20;99.90;;;;;;4901684;29;20210;-85
2023/12/01 06:52:46;;;;;;;14.57;8.93;;;-1.30;99.90;;;;;;4904731;29;20176;-83
2023/12/01 06:55:12;;;;;;;11.77;8.27;;;-1.20;99.90;;;;;;4891263;29;20180;-85
2023/12/01 06:57:48;;;;;;;13.33;8.17;;;-1.30;99.90;;;;;;4899306;29;20235;-84
2023/12/01 07:02:59;;;;;;;11.93;7.43;;;-1.30;99.90;;;;;;4897139;29;20210;-85
2023/12/01 07:05:28;;;;;;;11.10;7.70;;;-1.30;99.90;;;;;;4897181;29;20187;-84
2023/12/01 07:07:56;;;;;;;11.40;8.00;;;-1.30;99.90;;;;;;4914837;29;20226;-85
2023/12/01 07:10:22;;;;;;;12.27;7.90;;;-1.30;99.90;;;;;;4899833;29;20179;-85
2023/12/01 07:12:55;;;;;;;11.30;7.77;;;-1.30;99.90;;;;;;4913563;29;20653;-87
2023/12/01 07:15:22;;;;;;;11.87;7.77;;;-1.30;99.90;;;;;;4910033;29;20673;-85
2023/12/01 07:17:54;;;;;;;12.00;7.70;;;-1.30;99.90;;;;;;4917170;29;20186;-84
2023/12/01 07:20:20;;;;;;;12.00;7.27;;;-1.30;99.90;;;;;;4897846;29;20701;-81
2023/12/01 07:22:47;;;;;;;11.43;7.40;;;-1.40;99.90;;;;;;4882279;29;20226;-84
2023/12/01 07:25:24;;;;;;;11.77;7.93;;;-1.40;99.90;;;;;;4892446;29;20599;-84
2023/12/01 07:27:58;;;;;;;11.70;8.33;;;-1.50;99.90;;;;;;4897358;29;20171;-83
2023/12/01 07:30:29;;;;;;;11.43;8.20;;;-1.50;99.90;;;;;;4902824;29;20178;-84
2023/12/01 07:32:56;;;;;;;11.17;7.33;;;-1.40;99.90;;;;;;4892734;29;20179;-80
2023/12/01 07:35:22;;;;;;;13.03;8.07;;;-1.40;99.90;;;;;;4902161;29;20190;-85
2023/12/01 07:37:51;;;;;;;19.43;10.97;;;-1.40;99.90;;;;;;4890316;29;20191;-86
2023/12/01 07:40:19;;;;;;;12.23;8.20;;;-1.40;99.90;;;;;;4906177;29;20187;-84
2023/12/01 07:42:46;;;;;;;13.40;8.90;;;-1.30;99.90;;;;;;4893491;29;20214;-85
2023/12/01 07:45:17;;;;;;;12.37;8.13;;;-1.40;99.90;;;;;;4895055;29;20189;-84
2023/12/01 07:47:46;;;;;;;13.33;8.37;;;-1.40;99.90;;;;;;4890153;29;20195;-85
2023/12/01 07:50:14;;;;;;;15.37;9.50;;;-1.40;99.90;;;;;;4898835;29;20195;-85
2023/12/01 07:52:44;;;;;;;14.87;9.37;;;-1.40;99.90;;;;;;4877285;29;20188;-85
2023/12/01 07:55:10;;;;;;;17.07;9.80;;;-1.40;99.90;;;;;;4910094;29;20238;-83
2023/12/01 07:57:36;;;;;;;15.10;9.57;;;-1.40;99.90;;;;;;4910379;29;20626;-84
2023/12/01 08:00:05;;;;;;;17.17;11.20;;;-1.40;99.90;;;;;;4887498;29;20626;-85
2023/12/01 08:02:31;;;;;;;15.23;9.90;;;-1.40;99.90;;;;;;4896320;29;20203;-84
2023/12/01 08:04:57;;;;;;;22.27;13.30;;;-1.40;99.90;;;;;;4913027;29;20186;-81
2023/12/01 08:07:23;;;;;;;21.23;12.23;;;-1.40;99.90;;;;;;4896182;29;20382;-86
2023/12/01 08:09:48;;;;;;;15.03;9.60;;;-1.40;99.90;;;;;;4913222;29;20182;-82
2023/12/01 08:12:16;;;;;;;24.67;13.77;;;-1.40;99.90;;;;;;4913197;29;20180;-84
2023/12/01 08:14:41;;;;;;;20.83;11.17;;;-1.40;99.90;;;;;;4917175;29;20218;-85
2023/12/01 08:17:07;;;;;;;29.60;15.23;;;-1.40;99.90;;;;;;4896328;29;20187;-84
2023/12/01 08:19:34;;;;;;;18.70;10.87;;;-1.60;99.90;;;;;;4899078;29;20218;-82
2023/12/01 08:22:00;;;;;;;18.37;10.23;;;-1.60;99.90;;;;;;4893439;29;20259;-83
2023/12/01 08:24:25;;;;;;;17.37;10.53;;;-1.70;99.90;;;;;;4913737;29;20178;-86
2023/12/01 08:26:51;;;;;;;25.20;12.10;;;-1.70;99.90;;;;;;4888452;29;20618;-82
2023/12/01 08:29:17;;;;;;;14.97;8.50;;;-1.70;99.90;;;;;;4909446;29;20707;-84
2023/12/01 08:31:50;;;;;;;13.53;8.57;;;-1.80;99.90;;;;;;4909725;29;20187;-86
2023/12/01 08:34:15;;;;;;;13.07;7.97;;;-1.80;99.90;;;;;;4896268;29;20250;-86
2023/12/01 08:36:41;;;;;;;18.00;9.73;;;-1.80;99.90;;;;;;4885292;29;20619;-86
2023/12/01 08:39:09;;;;;;;18.27;10.20;;;-1.80;99.90;;;;;;4893311;29;20190;-86
2023/12/01 08:41:35;;;;;;;15.73;8.30;;;-1.70;99.90;;;;;;4897185;29;20183;-85
2023/12/01 08:44:01;;;;;;;34.93;11.67;;;-1.70;99.90;;;;;;4911981;29;20562;-84
2023/12/01 08:46:27;;;;;;;13.80;7.00;;;-1.60;99.90;;;;;;4888707;29;20266;-85
2023/12/01 08:48:52;;;;;;;46.87;16.03;;;-1.70;99.90;;;;;;4911829;29;20341;-83
2023/12/01 08:51:18;;;;;;;33.07;17.87;;;-1.70;99.90;;;;;;4909775;29;20273;-85
2023/12/01 08:53:44;;;;;;;12.70;8.33;;;-1.70;99.90;;;;;;4907743;29;20181;-84
2023/12/01 08:56:10;;;;;;;10.27;7.00;;;-1.70;99.90;;;;;;4903490;29;20193;-86
2023/12/01 08:58:36;;;;;;;11.23;6.77;;;-1.70;99.90;;;;;;4890742;29;20213;-86
2023/12/01 09:01:03;;;;;;;11.37;7.00;;;-1.70;99.90;;;;;;4908790;29;20242;-86
2023/12/01 09:03:28;;;;;;;10.93;6.10;;;-1.70;99.90;;;;;;4881971;29;20709;-83
2023/12/01 09:05:54;;;;;;;8.97;6.30;;;-1.60;99.90;;;;;;4919938;29;20178;-86
2023/12/01 09:08:19;;;;;;;9.30;5.90;;;-1.50;99.90;;;;;;4892699;29;20199;-87
2023/12/01 09:10:47;;;;;;;9.30;5.97;;;-1.50;99.90;;;;;;4887589;29;20183;-86
2023/12/01 09:13:13;;;;;;;10.87;6.40;;;-1.50;99.90;;;;;;4878610;29;20522;-84
2023/12/01 09:15:39;;;;;;;10.30;6.40;;;-1.50;99.90;;;;;;4906697;29;20308;-85
2023/12/01 09:18:05;;;;;;;9.07;6.47;;;-1.50;99.90;;;;;;4905347;29;20640;-86
2023/12/01 09:20:31;;;;;;;8.83;5.60;;;-1.50;99.90;;;;;;4898720;29;20183;-86
2023/12/01 09:22:56;;;;;;;8.00;5.07;;;-1.50;99.90;;;;;;4879953;29;20227;-81
2023/12/01 09:25:22;;;;;;;9.40;6.33;;;-1.40;99.90;;;;;;4910905;29;20735;-86
2023/12/01 09:27:48;;;;;;;10.00;6.70;;;-1.40;99.90;;;;;;4902347;29;20193;-85
2023/12/01 09:30:16;;;;;;;9.83;7.30;;;-1.30;99.90;;;;;;4885171;29;20186;-85
2023/12/01 09:32:43;;;;;;;12.20;8.23;;;-1.30;99.90;;;;;;4882265;29;20186;-85
2023/12/01 09:35:08;;;;;;;8.77;5.97;;;-1.20;99.90;;;;;;4917968;29;20287;-82
2023/12/01 09:37:34;;;;;;;8.93;6.50;;;-1.20;99.90;;;;;;4908893;29;20274;-86
2023/12/01 09:40:02;;;;;;;7.90;5.67;;;-1.10;99.90;;;;;;4893423;29;20506;-84
2023/12/01 09:42:32;;;;;;;8.53;5.73;;;-1.10;99.90;;;;;;4898944;29;20662;-87
2023/12/01 09:45:00;;;;;;;8.53;5.77;;;-1.10;99.90;;;;;;4899395;29;20182;-81
2023/12/01 09:47:30;;;;;;;9.07;5.73;;;-1.20;99.90;;;;;;4898928;29;20204;-84
2023/12/01 09:49:55;;;;;;;10.43;5.60;;;-1.10;99.90;;;;;;4898847;29;20507;-88
2023/12/01 09:52:21;;;;;;;11.13;7.87;;;-1.00;99.90;;;;;;4891559;29;20192;-87
2023/12/01 09:54:47;;;;;;;13.67;7.33;;;-1.00;99.90;;;;;;4907513;29;20242;-85
2023/12/01 09:57:13;;;;;;;9.80;6.13;;;-1.00;99.90;;;;;;4894964;29;20258;-89
2023/12/01 09:59:39;;;;;;;8.37;5.70;;;-1.00;99.90;;;;;;4919425;29;20264;-85
2023/12/01 10:02:05;;;;;;;7.53;5.70;;;-0.90;99.90;;;;;;4887198;29;20207;-88
2023/12/01 10:04:35;;;;;;;10.30;6.10;;;-0.90;99.90;;;;;;4914901;29;20251;-88
2023/12/01 10:07:01;;;;;;;7.67;5.27;;;-0.90;99.90;;;;;;4872243;29;20693;-87
2023/12/01 10:09:33;;;;;;;10.93;6.53;;;-1.00;99.90;;;;;;4865231;29;20219;-88
2023/12/01 10:12:09;;;;;;;11.43;6.50;;;-1.00;99.90;;;;;;4890044;29;20653;-84
2023/12/01 10:14:36;;;;;;;8.70;6.13;;;-1.00;99.90;;;;;;4895829;29;20204;-88
2023/12/01 10:17:07;;;;;;;9.70;6.00;;;-0.90;99.90;;;;;;4897932;29;20186;-87
2023/12/01 10:19:34;;;;;;;7.47;5.50;;;-1.10;99.90;;;;;;4883385;29;20415;-88
2023/12/01 10:22:06;;;;;;;8.40;6.10;;;-1.20;99.90;;;;;;4875804;29;20234;-87
2023/12/01 10:24:33;;;;;;;8.50;5.90;;;-1.20;99.90;;;;;;4895748;29;20263;-87
2023/12/01 10:27:02;;;;;;;8.63;6.23;;;-1.10;99.90;;;;;;4889763;29;20182;-81
2023/12/01 10:29:32;;;;;;;9.70;6.33;;;-1.10;99.90;;;;;;4883530;29;20707;-86
2023/12/01 10:32:03;;;;;;;9.57;5.93;;;-1.20;99.90;;;;;;4883314;29;20222;-83
2023/12/01 10:34:29;;;;;;;9.40;5.77;;;-1.10;99.90;;;;;;4887917;29;20207;-84
2023/12/01 10:36:55;;;;;;;9.00;5.93;;;-1.00;99.90;;;;;;4880078;29;20255;-86
2023/12/01 10:39:29;;;;;;;11.40;6.33;;;-1.00;99.90;;;;;;4883288;29;20198;-87
2023/12/01 10:42:00;;;;;;;9.30;5.93;;;-0.90;99.90;;;;;;4892613;29;20199;-86
2023/12/01 10:44:27;;;;;;;11.40;6.70;;;-0.90;99.90;;;;;;4876175;29;20281;-86
2023/12/01 10:46:54;;;;;;;12.23;8.30;;;-0.90;99.90;;;;;;4899238;29;20183;-88
2023/12/01 10:49:21;;;;;;;11.80;7.57;;;-1.00;99.90;;;;;;4882761;29;20199;-85
2023/12/01 10:51:53;;;;;;;12.70;7.63;;;-1.00;99.90;;;;;;4875804;29;20195;-88
2023/12/01 10:54:21;;;;;;;12.23;7.33;;;-1.00;99.90;;;;;;4897159;29;20184;-86
2023/12/01 10:57:06;;;;;;;13.67;7.83;;;-1.00;99.90;;;;;;4872513;29;20180;-88
2023/12/01 10:59:34;;;;;;;15.50;9.37;;;-1.00;99.90;;;;;;4889143;29;20191;-88
2023/12/01 11:02:03;;;;;;;11.60;7.17;;;-0.90;99.90;;;;;;4896405;29;20321;-87
2023/12/01 11:04:30;;;;;;;14.87;8.77;;;-0.90;99.90;;;;;;4888452;29;20188;-86
2023/12/01 11:07:23;;;;;;;12.00;7.87;;;-1.00;99.90;;;;;;4876686;29;20232;-86
2023/12/01 11:10:04;;;;;;;14.27;7.70;;;-1.00;99.90;;;;;;4883318;29;20180;-87
2023/12/01 11:12:58;;;;;;;11.73;6.47;;;-1.00;99.90;;;;;;4874608;29;20180;-88
2023/12/01 11:15:28;;;;;;;10.47;5.97;;;-0.90;99.90;;;;;;4872622;29;20187;-89
2023/12/01 11:17:55;;;;;;;10.83;6.20;;;-1.00;99.90;;;;;;4867918;29;20181;-88
2023/12/01 11:20:29;;;;;;;16.83;8.73;;;-1.00;99.90;;;;;;4872120;29;20223;-87
2023/12/01 11:23:25;;;;;;;9.63;6.07;;;-1.00;99.90;;;;;;4872429;29;20219;-88
2023/12/01 11:25:55;;;;;;;9.30;5.93;;;-1.10;99.90;;;;;;4865708;29;20568;-89
2023/12/01 11:31:19;;;;;;;7.80;5.17;;;-1.00;99.90;;;;;;4900095;29;20203;-89
2023/12/01 11:33:55;;;;;;;7.93;4.93;;;-1.00;99.90;;;;;;4878589;29;20609;-89
2023/12/01 11:36:31;;;;;;;8.23;4.37;;;-1.00;99.90;;;;;;4895129;29;20216;-88
2023/12/01 11:39:20;;;;;;;6.87;4.27;;;-1.10;99.90;;;;;;4881456;29;20607;-86
2023/12/01 11:41:48;;;;;;;7.43;4.40;;;-1.20;99.90;;;;;;4889026;29;20191;-87
2023/12/01 11:44:30;;;;;;;6.20;4.37;;;-1.20;99.90;;;;;;4883790;29;20252;-87
2023/12/01 11:46:57;;;;;;;8.10;5.33;;;-1.20;99.90;;;;;;4882862;29;20192;-88
2023/12/01 11:49:33;;;;;;;9.50;5.33;;;-1.20;99.90;;;;;;4882671;29;20630;-87
2023/12/01 11:52:00;;;;;;;6.77;4.70;;;-1.10;99.90;;;;;;4878991;29;20682;-87
2023/12/01 11:54:27;;;;;;;14.07;7.63;;;-1.10;99.90;;;;;;4888528;29;20268;-87
2023/12/01 11:56:55;;;;;;;10.97;6.80;;;-1.10;99.90;;;;;;4880175;29;20187;-88
2023/12/01 11:59:21;;;;;;;11.27;6.17;;;-1.20;99.90;;;;;;4872861;29;20212;-88
2023/12/01 12:01:47;;;;;;;9.13;4.67;;;-1.20;99.90;;;;;;4873261;29;20216;-87
2023/12/01 12:04:17;;;;;;;7.37;3.83;;;-1.30;99.90;;;;;;4873151;29;20873;-88
2023/12/01 12:06:46;;;;;;;13.80;6.10;;;-1.30;99.90;;;;;;4884198;29;20664;-89
2023/12/01 12:09:20;;;;;;;11.10;6.77;;;-1.30;99.90;;;;;;4878797;29;20184;-87
2023/12/01 12:11:49;;;;;;;6.87;4.50;;;-1.30;99.90;;;;;;4891765;29;20270;-87
2023/12/01 12:14:17;;;;;;;7.17;4.97;;;-1.20;99.90;;;;;;4894923;29;20254;-87
2023/12/01 12:16:44;;;;;;;5.73;4.00;;;-1.20;99.90;;;;;;4887204;29;20199;-87
2023/12/01 12:19:09;;;;;;;6.27;4.50;;;-1.20;99.90;;;;;;4887948;29;20197;-88
2023/12/01 12:21:36;;;;;;;5.50;4.00;;;-1.10;99.90;;;;;;4891234;29;20184;-88
2023/12/01 12:24:05;;;;;;;6.53;4.27;;;-1.00;99.90;;;;;;4891126;29;20196;-88
2023/12/01 12:26:31;;;;;;;5.60;3.87;;;-0.90;99.90;;;;;;4895134;29;20179;-88
2023/12/01 12:29:02;;;;;;;5.20;3.80;;;-0.90;99.90;;;;;;4896212;29;20278;-85
2023/12/01 12:31:40;;;;;;;5.60;3.70;;;-0.90;99.90;;;;;;4882822;29;20176;-89
2023/12/01 12:34:08;;;;;;;5.27;3.63;;;-0.90;99.90;;;;;;4887770;29;20184;-86
2023/12/01 12:36:38;;;;;;;5.97;4.10;;;-1.00;99.90;;;;;;4885224;29;20267;-88
2023/12/01 12:39:06;;;;;;;4.90;3.60;;;-1.00;99.90;;;;;;4885392;29;20518;-89
2023/12/01 12:41:42;;;;;;;6.70;3.50;;;-0.90;99.90;;;;;;4884238;29;20292;-88
2023/12/01 12:44:11;;;;;;;5.17;3.93;;;-0.90;99.90;;;;;;4881949;29;20199;-87